sensor_id;sensor_type;location;lat;lon;timestamp;P1;durP1;ratioP1;P2;durP2;ratioP2
79697;SDS011;69168;42.708;23.286;2024-03-02T00:00:14;27.15;;;14.13;;
79697;SDS011;69168;42.708;23.286;2024-03-02T00:02:43;25.25;;;13.40;;
79697;SDS011;69168;42.708;23.286;2024-03-02T00:05:13;28.17;;;14.10;;
79697;SDS011;69168;42.708;23.286;2024-03-02T00:07:41;27.88;;;13.57;;
79697;SDS011;69168;42.708;23.286;2024-03-02T00:10:11;27.42;;;15.10;;
79697;SDS011;69168;42.708;23.286;2024-03-02T00:12:39;23.85;;;12.95;;
79697;SDS011;69168;42.708;23.286;2024-03-02T00:17:55;23.70;;;13.10;;
79697;SDS011;69168;42.708;23.286;2024-03-02T00:20:24;24.15;;;13.05;;
79697;SDS011;69168;42.708;23.286;2024-03-02T00:22:55;23.30;;;13.02;;
79697;SDS011;69168;42.708;23.286;2024-03-02T00:25:39;24.08;;;11.93;;
79697;SDS011;69168;42.708;23.286;2024-03-02T00:28:50;21.20;;;12.05;;
79697;SDS011;69168;42.708;23.286;2024-03-02T00:31:02;25.35;;;13.05;;
79697;SDS011;69168;42.708;23.286;2024-03-02T00:33:34;28.52;;;13.32;;
79697;SDS011;69168;42.708;23.286;2024-03-02T00:36:04;22.83;;;12.55;;
79697;SDS011;69168;42.708;23.286;2024-03-02T00:38:31;26.23;;;13.13;;
79697;SDS011;69168;42.708;23.286;2024-03-02T00:43:44;19.95;;;11.50;;
79697;SDS011;69168;42.708;23.286;2024-03-02T00:46:13;19.63;;;10.55;;
79697;SDS011;69168;42.708;23.286;2024-03-02T00:48:45;24.90;;;11.45;;
79697;SDS011;69168;42.708;23.286;2024-03-02T00:51:16;22.85;;;12.38;;
79697;SDS011;69168;42.708;23.286;2024-03-02T00:53:41;23.00;;;12.30;;
79697;SDS011;69168;42.708;23.286;2024-03-02T00:56:09;22.23;;;11.55;;
79697;SDS011;69168;42.708;23.286;2024-03-02T00:58:36;24.83;;;12.02;;
79697;SDS011;69168;42.708;23.286;2024-03-02T01:01:01;19.98;;;11.65;;
79697;SDS011;69168;42.708;23.286;2024-03-02T01:03:27;24.38;;;12.63;;
79697;SDS011;69168;42.708;23.286;2024-03-02T01:05:53;20.45;;;11.57;;
79697;SDS011;69168;42.708;23.286;2024-03-02T01:08:18;23.95;;;12.13;;
79697;SDS011;69168;42.708;23.286;2024-03-02T01:10:44;23.27;;;12.68;;
79697;SDS011;69168;42.708;23.286;2024-03-02T01:13:09;27.58;;;13.48;;
79697;SDS011;69168;42.708;23.286;2024-03-02T01:15:35;20.02;;;11.75;;
79697;SDS011;69168;42.708;23.286;2024-03-02T01:18:00;26.80;;;13.73;;
79697;SDS011;69168;42.708;23.286;2024-03-02T01:20:26;23.83;;;12.48;;
79697;SDS011;69168;42.708;23.286;2024-03-02T01:22:52;25.13;;;12.02;;
79697;SDS011;69168;42.708;23.286;2024-03-02T01:25:18;29.02;;;14.07;;
79697;SDS011;69168;42.708;23.286;2024-03-02T01:27:43;22.77;;;12.38;;
79697;SDS011;69168;42.708;23.286;2024-03-02T01:30:09;24.25;;;12.32;;
79697;SDS011;69168;42.708;23.286;2024-03-02T01:32:37;20.65;;;11.85;;
79697;SDS011;69168;42.708;23.286;2024-03-02T01:35:03;20.20;;;11.25;;
79697;SDS011;69168;42.708;23.286;2024-03-02T01:37:30;21.70;;;12.05;;
79697;SDS011;69168;42.708;23.286;2024-03-02T01:39:55;22.52;;;11.98;;
79697;SDS011;69168;42.708;23.286;2024-03-02T01:42:21;24.48;;;11.20;;
79697;SDS011;69168;42.708;23.286;2024-03-02T01:44:47;21.02;;;12.50;;
79697;SDS011;69168;42.708;23.286;2024-03-02T01:47:13;23.67;;;12.85;;
79697;SDS011;69168;42.708;23.286;2024-03-02T01:49:38;23.88;;;12.02;;
79697;SDS011;69168;42.708;23.286;2024-03-02T01:52:06;21.77;;;12.57;;
79697;SDS011;69168;42.708;23.286;2024-03-02T01:54:32;25.13;;;12.60;;
79697;SDS011;69168;42.708;23.286;2024-03-02T01:56:57;25.75;;;13.85;;
79697;SDS011;69168;42.708;23.286;2024-03-02T01:59:23;22.75;;;12.43;;
79697;SDS011;69168;42.708;23.286;2024-03-02T02:01:49;26.88;;;12.70;;
79697;SDS011;69168;42.708;23.286;2024-03-02T02:04:15;26.30;;;13.15;;
79697;SDS011;69168;42.708;23.286;2024-03-02T02:06:40;26.85;;;13.70;;
79697;SDS011;69168;42.708;23.286;2024-03-02T02:09:06;24.63;;;12.98;;
79697;SDS011;69168;42.708;23.286;2024-03-02T02:11:33;25.75;;;13.90;;
79697;SDS011;69168;42.708;23.286;2024-03-02T02:13:59;28.50;;;15.07;;
79697;SDS011;69168;42.708;23.286;2024-03-02T02:16:25;28.33;;;14.27;;
79697;SDS011;69168;42.708;23.286;2024-03-02T02:18:50;29.17;;;14.65;;
79697;SDS011;69168;42.708;23.286;2024-03-02T02:21:16;26.40;;;14.57;;
79697;SDS011;69168;42.708;23.286;2024-03-02T02:23:41;28.58;;;13.93;;
79697;SDS011;69168;42.708;23.286;2024-03-02T02:26:11;28.13;;;14.90;;
79697;SDS011;69168;42.708;23.286;2024-03-02T02:28:37;26.05;;;14.95;;
79697;SDS011;69168;42.708;23.286;2024-03-02T02:31:02;29.90;;;15.20;;
79697;SDS011;69168;42.708;23.286;2024-03-02T02:33:28;26.77;;;14.02;;
79697;SDS011;69168;42.708;23.286;2024-03-02T02:35:54;28.67;;;14.35;;
79697;SDS011;69168;42.708;23.286;2024-03-02T02:38:19;27.85;;;14.23;;
79697;SDS011;69168;42.708;23.286;2024-03-02T02:40:45;26.75;;;14.30;;
79697;SDS011;69168;42.708;23.286;2024-03-02T02:43:11;30.77;;;15.95;;
79697;SDS011;69168;42.708;23.286;2024-03-02T02:45:36;28.83;;;14.20;;
79697;SDS011;69168;42.708;23.286;2024-03-02T02:48:02;27.85;;;14.23;;
79697;SDS011;69168;42.708;23.286;2024-03-02T02:50:28;30.92;;;15.32;;
79697;SDS011;69168;42.708;23.286;2024-03-02T02:52:54;32.38;;;15.23;;
79697;SDS011;69168;42.708;23.286;2024-03-02T02:55:19;29.95;;;15.18;;
79697;SDS011;69168;42.708;23.286;2024-03-02T02:57:45;31.08;;;15.43;;
79697;SDS011;69168;42.708;23.286;2024-03-02T03:02:44;27.40;;;13.98;;
79697;SDS011;69168;42.708;23.286;2024-03-02T03:05:12;32.58;;;16.00;;
79697;SDS011;69168;42.708;23.286;2024-03-02T03:07:39;31.58;;;14.25;;
79697;SDS011;69168;42.708;23.286;2024-03-02T03:10:05;28.70;;;15.65;;
79697;SDS011;69168;42.708;23.286;2024-03-02T03:14:58;30.00;;;14.38;;
79697;SDS011;69168;42.708;23.286;2024-03-02T03:17:24;32.15;;;16.33;;
79697;SDS011;69168;42.708;23.286;2024-03-02T03:19:49;33.40;;;17.13;;
79697;SDS011;69168;42.708;23.286;2024-03-02T03:22:16;32.40;;;16.30;;
79697;SDS011;69168;42.708;23.286;2024-03-02T03:24:41;27.33;;;15.20;;
79697;SDS011;69168;42.708;23.286;2024-03-02T03:27:07;28.60;;;15.80;;
79697;SDS011;69168;42.708;23.286;2024-03-02T03:32:01;30.38;;;15.05;;
79697;SDS011;69168;42.708;23.286;2024-03-02T03:34:27;32.13;;;15.35;;
79697;SDS011;69168;42.708;23.286;2024-03-02T03:36:54;35.35;;;16.10;;
79697;SDS011;69168;42.708;23.286;2024-03-02T03:39:19;35.17;;;16.35;;
79697;SDS011;69168;42.708;23.286;2024-03-02T03:41:45;33.60;;;16.95;;
79697;SDS011;69168;42.708;23.286;2024-03-02T03:44:11;36.22;;;16.98;;
79697;SDS011;69168;42.708;23.286;2024-03-02T03:46:36;30.00;;;16.23;;
79697;SDS011;69168;42.708;23.286;2024-03-02T03:49:02;32.42;;;16.73;;
79697;SDS011;69168;42.708;23.286;2024-03-02T03:51:29;33.13;;;16.00;;
79697;SDS011;69168;42.708;23.286;2024-03-02T03:53:55;34.33;;;16.55;;
79697;SDS011;69168;42.708;23.286;2024-03-02T03:56:21;35.45;;;17.65;;
79697;SDS011;69168;42.708;23.286;2024-03-02T03:58:46;30.80;;;16.10;;
79697;SDS011;69168;42.708;23.286;2024-03-02T04:01:12;35.08;;;17.13;;
79697;SDS011;69168;42.708;23.286;2024-03-02T04:03:38;33.25;;;17.25;;
79697;SDS011;69168;42.708;23.286;2024-03-02T04:06:04;32.88;;;16.30;;
79697;SDS011;69168;42.708;23.286;2024-03-02T04:08:29;33.90;;;17.45;;
79697;SDS011;69168;42.708;23.286;2024-03-02T04:10:55;33.95;;;17.40;;
79697;SDS011;69168;42.708;23.286;2024-03-02T04:13:21;40.72;;;17.52;;
79697;SDS011;69168;42.708;23.286;2024-03-02T04:15:47;38.10;;;18.73;;
79697;SDS011;69168;42.708;23.286;2024-03-02T04:18:15;33.75;;;17.30;;
79697;SDS011;69168;42.708;23.286;2024-03-02T04:20:41;37.17;;;17.58;;
79697;SDS011;69168;42.708;23.286;2024-03-02T04:23:07;33.25;;;16.45;;
79697;SDS011;69168;42.708;23.286;2024-03-02T04:25:32;38.65;;;17.80;;
79697;SDS011;69168;42.708;23.286;2024-03-02T04:27:58;36.78;;;18.63;;
79697;SDS011;69168;42.708;23.286;2024-03-02T04:30:24;39.78;;;18.08;;
79697;SDS011;69168;42.708;23.286;2024-03-02T04:32:50;35.92;;;17.30;;
79697;SDS011;69168;42.708;23.286;2024-03-02T04:35:16;36.10;;;17.48;;
79697;SDS011;69168;42.708;23.286;2024-03-02T04:37:41;30.42;;;16.35;;
79697;SDS011;69168;42.708;23.286;2024-03-02T04:40:07;35.58;;;16.63;;
79697;SDS011;69168;42.708;23.286;2024-03-02T04:42:34;36.75;;;17.77;;
79697;SDS011;69168;42.708;23.286;2024-03-02T04:45:00;34.28;;;16.83;;
79697;SDS011;69168;42.708;23.286;2024-03-02T04:47:28;35.50;;;17.40;;
79697;SDS011;69168;42.708;23.286;2024-03-02T04:49:56;36.10;;;18.92;;
79697;SDS011;69168;42.708;23.286;2024-03-02T04:52:23;31.42;;;16.23;;
79697;SDS011;69168;42.708;23.286;2024-03-02T04:54:51;38.88;;;18.30;;
79697;SDS011;69168;42.708;23.286;2024-03-02T04:57:41;38.03;;;18.52;;
79697;SDS011;69168;42.708;23.286;2024-03-02T05:00:07;37.67;;;19.58;;
79697;SDS011;69168;42.708;23.286;2024-03-02T05:02:34;36.47;;;19.05;;
79697;SDS011;69168;42.708;23.286;2024-03-02T05:05:00;36.63;;;18.92;;
79697;SDS011;69168;42.708;23.286;2024-03-02T05:07:29;43.80;;;20.73;;
79697;SDS011;69168;42.708;23.286;2024-03-02T05:09:57;38.13;;;19.73;;
79697;SDS011;69168;42.708;23.286;2024-03-02T05:12:23;37.15;;;18.90;;
79697;SDS011;69168;42.708;23.286;2024-03-02T05:15:09;42.78;;;20.40;;
79697;SDS011;69168;42.708;23.286;2024-03-02T05:17:39;41.15;;;21.05;;
79697;SDS011;69168;42.708;23.286;2024-03-02T05:20:06;45.53;;;20.63;;
79697;SDS011;69168;42.708;23.286;2024-03-02T05:22:35;41.05;;;20.55;;
79697;SDS011;69168;42.708;23.286;2024-03-02T05:25:02;40.17;;;21.00;;
79697;SDS011;69168;42.708;23.286;2024-03-02T05:27:28;39.28;;;20.63;;
79697;SDS011;69168;42.708;23.286;2024-03-02T05:29:53;47.33;;;21.88;;
79697;SDS011;69168;42.708;23.286;2024-03-02T05:32:19;44.65;;;22.75;;
79697;SDS011;69168;42.708;23.286;2024-03-02T05:34:45;57.40;;;27.52;;
79697;SDS011;69168;42.708;23.286;2024-03-02T05:37:11;44.90;;;24.02;;
79697;SDS011;69168;42.708;23.286;2024-03-02T05:39:36;44.63;;;20.42;;
79697;SDS011;69168;42.708;23.286;2024-03-02T05:42:02;44.97;;;21.73;;
79697;SDS011;69168;42.708;23.286;2024-03-02T05:44:34;45.53;;;22.33;;
79697;SDS011;69168;42.708;23.286;2024-03-02T05:47:01;38.53;;;19.88;;
79697;SDS011;69168;42.708;23.286;2024-03-02T05:49:29;40.10;;;20.27;;
79697;SDS011;69168;42.708;23.286;2024-03-02T05:51:55;47.03;;;22.08;;
79697;SDS011;69168;42.708;23.286;2024-03-02T05:54:20;51.25;;;24.17;;
79697;SDS011;69168;42.708;23.286;2024-03-02T05:56:46;45.70;;;22.52;;
79697;SDS011;69168;42.708;23.286;2024-03-02T05:59:15;42.30;;;21.00;;
79697;SDS011;69168;42.708;23.286;2024-03-02T06:01:43;47.75;;;24.13;;
79697;SDS011;69168;42.708;23.286;2024-03-02T06:04:09;47.28;;;22.88;;
79697;SDS011;69168;42.708;23.286;2024-03-02T06:06:38;45.20;;;21.92;;
79697;SDS011;69168;42.708;23.286;2024-03-02T06:09:07;39.03;;;20.17;;
79697;SDS011;69168;42.708;23.286;2024-03-02T06:11:37;40.15;;;20.48;;
79697;SDS011;69168;42.708;23.286;2024-03-02T06:14:03;42.30;;;21.58;;
79697;SDS011;69168;42.708;23.286;2024-03-02T06:16:32;36.03;;;19.58;;
79697;SDS011;69168;42.708;23.286;2024-03-02T06:18:58;37.38;;;19.45;;
79697;SDS011;69168;42.708;23.286;2024-03-02T06:21:24;39.00;;;19.10;;
79697;SDS011;69168;42.708;23.286;2024-03-02T06:23:52;39.53;;;19.30;;
79697;SDS011;69168;42.708;23.286;2024-03-02T06:26:18;39.38;;;18.35;;
79697;SDS011;69168;42.708;23.286;2024-03-02T06:28:44;35.58;;;16.55;;
79697;SDS011;69168;42.708;23.286;2024-03-02T06:31:10;39.22;;;17.52;;
79697;SDS011;69168;42.708;23.286;2024-03-02T06:33:36;36.45;;;17.27;;
79697;SDS011;69168;42.708;23.286;2024-03-02T06:36:02;37.95;;;19.23;;
79697;SDS011;69168;42.708;23.286;2024-03-02T06:38:28;34.95;;;17.40;;
79697;SDS011;69168;42.708;23.286;2024-03-02T06:40:57;38.38;;;19.00;;
79697;SDS011;69168;42.708;23.286;2024-03-02T06:43:26;35.50;;;17.65;;
79697;SDS011;69168;42.708;23.286;2024-03-02T06:45:51;38.63;;;17.52;;
79697;SDS011;69168;42.708;23.286;2024-03-02T06:48:18;34.60;;;17.20;;
79697;SDS011;69168;42.708;23.286;2024-03-02T06:50:48;34.50;;;16.45;;
79697;SDS011;69168;42.708;23.286;2024-03-02T06:53:14;34.30;;;16.83;;
79697;SDS011;69168;42.708;23.286;2024-03-02T06:55:45;38.03;;;17.88;;
79697;SDS011;69168;42.708;23.286;2024-03-02T06:58:14;36.25;;;16.98;;
79697;SDS011;69168;42.708;23.286;2024-03-02T07:00:43;36.67;;;16.55;;
79697;SDS011;69168;42.708;23.286;2024-03-02T07:03:10;33.08;;;16.83;;
79697;SDS011;69168;42.708;23.286;2024-03-02T07:05:35;34.03;;;15.75;;
79697;SDS011;69168;42.708;23.286;2024-03-02T07:08:03;36.92;;;15.55;;
79697;SDS011;69168;42.708;23.286;2024-03-02T07:10:30;32.65;;;14.80;;
79697;SDS011;69168;42.708;23.286;2024-03-02T07:12:56;32.20;;;16.65;;
79697;SDS011;69168;42.708;23.286;2024-03-02T07:15:21;33.13;;;15.93;;
79697;SDS011;69168;42.708;23.286;2024-03-02T07:17:52;33.13;;;16.50;;
79697;SDS011;69168;42.708;23.286;2024-03-02T07:20:18;33.88;;;15.48;;
79697;SDS011;69168;42.708;23.286;2024-03-02T07:22:44;32.65;;;16.80;;
79697;SDS011;69168;42.708;23.286;2024-03-02T07:25:09;39.17;;;18.63;;
79697;SDS011;69168;42.708;23.286;2024-03-02T07:27:35;37.47;;;16.70;;
79697;SDS011;69168;42.708;23.286;2024-03-02T07:30:04;31.25;;;15.85;;
79697;SDS011;69168;42.708;23.286;2024-03-02T07:32:30;35.20;;;16.10;;
79697;SDS011;69168;42.708;23.286;2024-03-02T07:35:02;36.58;;;17.13;;
79697;SDS011;69168;42.708;23.286;2024-03-02T07:37:28;37.72;;;17.33;;
79697;SDS011;69168;42.708;23.286;2024-03-02T07:39:54;33.38;;;16.63;;
79697;SDS011;69168;42.708;23.286;2024-03-02T07:42:20;33.53;;;16.42;;
79697;SDS011;69168;42.708;23.286;2024-03-02T07:44:46;42.65;;;19.65;;
79697;SDS011;69168;42.708;23.286;2024-03-02T07:47:11;44.35;;;19.98;;
79697;SDS011;69168;42.708;23.286;2024-03-02T07:49:37;38.25;;;18.42;;
79697;SDS011;69168;42.708;23.286;2024-03-02T07:52:03;38.55;;;18.30;;
79697;SDS011;69168;42.708;23.286;2024-03-02T07:54:30;40.22;;;19.45;;
79697;SDS011;69168;42.708;23.286;2024-03-02T07:56:56;35.67;;;17.48;;
79697;SDS011;69168;42.708;23.286;2024-03-02T07:59:28;38.67;;;18.40;;
79697;SDS011;69168;42.708;23.286;2024-03-02T08:01:53;39.25;;;18.50;;
79697;SDS011;69168;42.708;23.286;2024-03-02T08:04:20;37.88;;;17.23;;
79697;SDS011;69168;42.708;23.286;2024-03-02T08:06:49;36.67;;;17.75;;
79697;SDS011;69168;42.708;23.286;2024-03-02T08:09:15;35.88;;;16.65;;
79697;SDS011;69168;42.708;23.286;2024-03-02T08:11:41;38.88;;;18.13;;
79697;SDS011;69168;42.708;23.286;2024-03-02T08:14:06;31.98;;;17.60;;
79697;SDS011;69168;42.708;23.286;2024-03-02T08:16:32;32.53;;;15.52;;
79697;SDS011;69168;42.708;23.286;2024-03-02T08:19:00;31.92;;;15.18;;
79697;SDS011;69168;42.708;23.286;2024-03-02T08:21:28;33.63;;;16.35;;
79697;SDS011;69168;42.708;23.286;2024-03-02T08:23:57;34.35;;;16.10;;
79697;SDS011;69168;42.708;23.286;2024-03-02T08:26:23;32.83;;;16.58;;
79697;SDS011;69168;42.708;23.286;2024-03-02T08:28:54;34.90;;;17.38;;
79697;SDS011;69168;42.708;23.286;2024-03-02T08:31:19;35.97;;;16.33;;
79697;SDS011;69168;42.708;23.286;2024-03-02T08:33:48;38.55;;;17.13;;
79697;SDS011;69168;42.708;23.286;2024-03-02T08:36:13;35.90;;;17.10;;
79697;SDS011;69168;42.708;23.286;2024-03-02T08:38:39;37.65;;;17.60;;
79697;SDS011;69168;42.708;23.286;2024-03-02T08:41:06;30.90;;;14.82;;
79697;SDS011;69168;42.708;23.286;2024-03-02T08:43:32;31.85;;;15.65;;
79697;SDS011;69168;42.708;23.286;2024-03-02T08:45:58;33.17;;;15.77;;
79697;SDS011;69168;42.708;23.286;2024-03-02T08:48:24;31.17;;;16.25;;
79697;SDS011;69168;42.708;23.286;2024-03-02T08:50:49;34.88;;;17.40;;
79697;SDS011;69168;42.708;23.286;2024-03-02T08:53:15;37.28;;;19.05;;
79697;SDS011;69168;42.708;23.286;2024-03-02T08:55:45;32.97;;;17.38;;
79697;SDS011;69168;42.708;23.286;2024-03-02T08:58:14;36.60;;;18.17;;
79697;SDS011;69168;42.708;23.286;2024-03-02T09:00:39;33.85;;;16.73;;
79697;SDS011;69168;42.708;23.286;2024-03-02T09:03:10;39.78;;;18.52;;
79697;SDS011;69168;42.708;23.286;2024-03-02T09:05:36;39.03;;;18.75;;
79697;SDS011;69168;42.708;23.286;2024-03-02T09:08:01;33.17;;;17.48;;
79697;SDS011;69168;42.708;23.286;2024-03-02T09:10:30;37.92;;;18.50;;
79697;SDS011;69168;42.708;23.286;2024-03-02T09:12:55;35.97;;;18.33;;
79697;SDS011;69168;42.708;23.286;2024-03-02T09:15:21;38.08;;;18.60;;
79697;SDS011;69168;42.708;23.286;2024-03-02T09:17:47;36.67;;;17.83;;
79697;SDS011;69168;42.708;23.286;2024-03-02T09:20:12;43.85;;;22.02;;
79697;SDS011;69168;42.708;23.286;2024-03-02T09:22:42;51.30;;;25.77;;
79697;SDS011;69168;42.708;23.286;2024-03-02T09:25:07;45.08;;;22.88;;
79697;SDS011;69168;42.708;23.286;2024-03-02T09:27:36;39.63;;;18.63;;
79697;SDS011;69168;42.708;23.286;2024-03-02T09:30:03;40.47;;;19.42;;
79697;SDS011;69168;42.708;23.286;2024-03-02T09:32:35;38.63;;;20.23;;
79697;SDS011;69168;42.708;23.286;2024-03-02T09:37:27;34.45;;;17.30;;
79697;SDS011;69168;42.708;23.286;2024-03-02T09:39:54;39.70;;;19.73;;
79697;SDS011;69168;42.708;23.286;2024-03-02T09:42:21;39.75;;;18.05;;
79697;SDS011;69168;42.708;23.286;2024-03-02T09:44:48;31.23;;;16.75;;
79697;SDS011;69168;42.708;23.286;2024-03-02T09:47:13;35.15;;;18.15;;
79697;SDS011;69168;42.708;23.286;2024-03-02T09:49:39;36.75;;;19.23;;
79697;SDS011;69168;42.708;23.286;2024-03-02T09:52:05;33.42;;;17.60;;
79697;SDS011;69168;42.708;23.286;2024-03-02T09:54:32;31.95;;;17.67;;
79697;SDS011;69168;42.708;23.286;2024-03-02T09:56:57;33.03;;;17.60;;
79697;SDS011;69168;42.708;23.286;2024-03-02T09:59:23;38.05;;;20.00;;
79697;SDS011;69168;42.708;23.286;2024-03-02T10:02:22;31.63;;;17.55;;
79697;SDS011;69168;42.708;23.286;2024-03-02T10:04:40;33.55;;;17.40;;
79697;SDS011;69168;42.708;23.286;2024-03-02T10:07:15;31.63;;;17.52;;
79697;SDS011;69168;42.708;23.286;2024-03-02T10:09:43;35.22;;;17.33;;
79697;SDS011;69168;42.708;23.286;2024-03-02T10:12:11;37.80;;;17.92;;
79697;SDS011;69168;42.708;23.286;2024-03-02T10:14:37;34.30;;;17.75;;
79697;SDS011;69168;42.708;23.286;2024-03-02T10:17:05;37.20;;;17.38;;
79697;SDS011;69168;42.708;23.286;2024-03-02T10:19:32;34.40;;;17.05;;
79697;SDS011;69168;42.708;23.286;2024-03-02T10:22:00;35.95;;;17.15;;
79697;SDS011;69168;42.708;23.286;2024-03-02T10:24:28;38.25;;;18.80;;
79697;SDS011;69168;42.708;23.286;2024-03-02T10:27:01;35.00;;;18.80;;
79697;SDS011;69168;42.708;23.286;2024-03-02T10:29:54;34.25;;;17.73;;
79697;SDS011;69168;42.708;23.286;2024-03-02T10:32:20;38.60;;;18.45;;
79697;SDS011;69168;42.708;23.286;2024-03-02T10:34:48;38.25;;;18.30;;
79697;SDS011;69168;42.708;23.286;2024-03-02T10:37:15;34.60;;;17.90;;
79697;SDS011;69168;42.708;23.286;2024-03-02T10:39:42;35.03;;;18.90;;
79697;SDS011;69168;42.708;23.286;2024-03-02T10:42:08;34.35;;;18.02;;
79697;SDS011;69168;42.708;23.286;2024-03-02T10:44:34;35.35;;;17.85;;
79697;SDS011;69168;42.708;23.286;2024-03-02T10:47:01;39.50;;;18.63;;
79697;SDS011;69168;42.708;23.286;2024-03-02T10:49:29;35.20;;;18.77;;
79697;SDS011;69168;42.708;23.286;2024-03-02T10:51:59;37.95;;;17.65;;
79697;SDS011;69168;42.708;23.286;2024-03-02T10:54:25;36.03;;;17.83;;
79697;SDS011;69168;42.708;23.286;2024-03-02T10:57:01;34.40;;;16.95;;
79697;SDS011;69168;42.708;23.286;2024-03-02T10:59:34;31.08;;;16.17;;
79697;SDS011;69168;42.708;23.286;2024-03-02T11:02:01;34.30;;;16.23;;
79697;SDS011;69168;42.708;23.286;2024-03-02T11:04:28;34.85;;;17.23;;
79697;SDS011;69168;42.708;23.286;2024-03-02T11:09:25;33.65;;;15.95;;
79697;SDS011;69168;42.708;23.286;2024-03-02T11:11:56;33.95;;;16.52;;
79697;SDS011;69168;42.708;23.286;2024-03-02T11:14:27;33.25;;;16.50;;
79697;SDS011;69168;42.708;23.286;2024-03-02T11:16:56;30.10;;;17.00;;
79697;SDS011;69168;42.708;23.286;2024-03-02T11:19:23;29.92;;;16.55;;
79697;SDS011;69168;42.708;23.286;2024-03-02T11:21:49;36.42;;;17.52;;
79697;SDS011;69168;42.708;23.286;2024-03-02T11:26:52;33.60;;;17.98;;
79697;SDS011;69168;42.708;23.286;2024-03-02T11:32:15;32.35;;;16.38;;
79697;SDS011;69168;42.708;23.286;2024-03-02T11:34:42;28.60;;;15.23;;
79697;SDS011;69168;42.708;23.286;2024-03-02T11:37:10;29.77;;;16.08;;
79697;SDS011;69168;42.708;23.286;2024-03-02T11:39:37;30.02;;;16.02;;
79697;SDS011;69168;42.708;23.286;2024-03-02T11:42:07;31.08;;;14.77;;
79697;SDS011;69168;42.708;23.286;2024-03-02T11:44:36;28.77;;;14.23;;
79697;SDS011;69168;42.708;23.286;2024-03-02T11:47:06;25.58;;;15.02;;
79697;SDS011;69168;42.708;23.286;2024-03-02T11:52:03;28.15;;;14.45;;
79697;SDS011;69168;42.708;23.286;2024-03-02T11:54:29;28.85;;;14.15;;
79697;SDS011;69168;42.708;23.286;2024-03-02T11:56:59;26.98;;;14.20;;
79697;SDS011;69168;42.708;23.286;2024-03-02T11:59:27;25.02;;;14.45;;
79697;SDS011;69168;42.708;23.286;2024-03-02T12:01:54;26.80;;;13.82;;
79697;SDS011;69168;42.708;23.286;2024-03-02T12:04:20;25.40;;;13.77;;
79697;SDS011;69168;42.708;23.286;2024-03-02T12:06:47;25.42;;;13.80;;
79697;SDS011;69168;42.708;23.286;2024-03-02T12:09:20;24.27;;;12.95;;
79697;SDS011;69168;42.708;23.286;2024-03-02T12:11:46;26.38;;;14.45;;
79697;SDS011;69168;42.708;23.286;2024-03-02T12:14:11;28.77;;;14.70;;
79697;SDS011;69168;42.708;23.286;2024-03-02T12:16:46;29.17;;;15.13;;
79697;SDS011;69168;42.708;23.286;2024-03-02T12:19:12;26.40;;;13.73;;
79697;SDS011;69168;42.708;23.286;2024-03-02T12:21:38;26.83;;;15.13;;
79697;SDS011;69168;42.708;23.286;2024-03-02T12:24:06;25.48;;;13.82;;
79697;SDS011;69168;42.708;23.286;2024-03-02T12:26:32;26.90;;;14.52;;
79697;SDS011;69168;42.708;23.286;2024-03-02T12:28:58;31.42;;;15.70;;
79697;SDS011;69168;42.708;23.286;2024-03-02T12:31:24;29.85;;;14.80;;
79697;SDS011;69168;42.708;23.286;2024-03-02T12:33:49;27.08;;;14.68;;
79697;SDS011;69168;42.708;23.286;2024-03-02T12:36:15;27.77;;;15.60;;
79697;SDS011;69168;42.708;23.286;2024-03-02T12:38:43;25.35;;;13.00;;
79697;SDS011;69168;42.708;23.286;2024-03-02T12:41:09;24.67;;;13.88;;
79697;SDS011;69168;42.708;23.286;2024-03-02T12:43:35;24.80;;;13.90;;
79697;SDS011;69168;42.708;23.286;2024-03-02T12:46:08;23.27;;;13.70;;
79697;SDS011;69168;42.708;23.286;2024-03-02T12:48:34;26.25;;;14.70;;
79697;SDS011;69168;42.708;23.286;2024-03-02T12:51:01;36.55;;;16.40;;
79697;SDS011;69168;42.708;23.286;2024-03-02T12:53:26;30.85;;;15.18;;
79697;SDS011;69168;42.708;23.286;2024-03-02T12:55:52;26.33;;;14.70;;
79697;SDS011;69168;42.708;23.286;2024-03-02T12:58:21;25.23;;;13.82;;
79697;SDS011;69168;42.708;23.286;2024-03-02T13:00:48;24.95;;;14.25;;
79697;SDS011;69168;42.708;23.286;2024-03-02T13:03:13;25.45;;;14.80;;
79697;SDS011;69168;42.708;23.286;2024-03-02T13:05:40;24.90;;;14.85;;
79697;SDS011;69168;42.708;23.286;2024-03-02T13:08:06;29.52;;;15.20;;
79697;SDS011;69168;42.708;23.286;2024-03-02T13:10:32;31.45;;;18.38;;
79697;SDS011;69168;42.708;23.286;2024-03-02T13:13:00;37.30;;;20.45;;
79697;SDS011;69168;42.708;23.286;2024-03-02T13:15:26;37.55;;;22.08;;
79697;SDS011;69168;42.708;23.286;2024-03-02T13:17:52;39.40;;;22.20;;
79697;SDS011;69168;42.708;23.286;2024-03-02T13:20:21;36.40;;;22.45;;
79697;SDS011;69168;42.708;23.286;2024-03-02T13:22:46;41.85;;;23.63;;
79697;SDS011;69168;42.708;23.286;2024-03-02T13:25:12;43.13;;;24.77;;
79697;SDS011;69168;42.708;23.286;2024-03-02T13:27:37;39.90;;;22.38;;
79697;SDS011;69168;42.708;23.286;2024-03-02T13:30:03;41.30;;;21.73;;
79697;SDS011;69168;42.708;23.286;2024-03-02T13:32:31;42.97;;;21.90;;
79697;SDS011;69168;42.708;23.286;2024-03-02T13:34:56;31.23;;;18.75;;
79697;SDS011;69168;42.708;23.286;2024-03-02T13:37:22;32.15;;;18.83;;
79697;SDS011;69168;42.708;23.286;2024-03-02T13:39:50;29.13;;;15.52;;
79697;SDS011;69168;42.708;23.286;2024-03-02T13:42:16;28.65;;;15.65;;
79697;SDS011;69168;42.708;23.286;2024-03-02T13:44:45;30.15;;;17.92;;
79697;SDS011;69168;42.708;23.286;2024-03-02T13:47:13;33.20;;;18.80;;
79697;SDS011;69168;42.708;23.286;2024-03-02T13:49:39;27.92;;;15.27;;
79697;SDS011;69168;42.708;23.286;2024-03-02T13:52:08;28.70;;;15.55;;
79697;SDS011;69168;42.708;23.286;2024-03-02T13:54:42;27.23;;;16.02;;
79697;SDS011;69168;42.708;23.286;2024-03-02T13:57:09;23.58;;;13.00;;
79697;SDS011;69168;42.708;23.286;2024-03-02T13:59:35;24.50;;;13.63;;
79697;SDS011;69168;42.708;23.286;2024-03-02T14:02:02;30.92;;;14.70;;
79697;SDS011;69168;42.708;23.286;2024-03-02T14:04:34;23.73;;;13.38;;
79697;SDS011;69168;42.708;23.286;2024-03-02T14:07:00;21.60;;;12.57;;
79697;SDS011;69168;42.708;23.286;2024-03-02T14:09:27;22.77;;;12.80;;
79697;SDS011;69168;42.708;23.286;2024-03-02T14:11:53;25.35;;;13.93;;
79697;SDS011;69168;42.708;23.286;2024-03-02T14:14:19;27.25;;;14.68;;
79697;SDS011;69168;42.708;23.286;2024-03-02T14:16:45;28.50;;;15.98;;
79697;SDS011;69168;42.708;23.286;2024-03-02T14:19:11;28.70;;;16.05;;
79697;SDS011;69168;42.708;23.286;2024-03-02T14:21:40;32.42;;;15.98;;
79697;SDS011;69168;42.708;23.286;2024-03-02T14:24:05;30.30;;;15.73;;
79697;SDS011;69168;42.708;23.286;2024-03-02T14:26:34;26.63;;;15.60;;
79697;SDS011;69168;42.708;23.286;2024-03-02T14:29:01;24.17;;;14.68;;
79697;SDS011;69168;42.708;23.286;2024-03-02T14:31:28;28.02;;;15.40;;
79697;SDS011;69168;42.708;23.286;2024-03-02T14:33:53;37.88;;;17.42;;